Latest Weather Observations for Swan Hill

IDN60801

Issued at 2:05 pm EDT Wednesday 26 November 2014 (issued every 30 minutes, with the page automatically refreshed every 10 minutes)

About weather observations | Map of weather stations | Latest weather observations for NSW | Other Formats
Station Details ID: 077094 Name: SWAN HILL AERODROME Lat: -35.38 Lon: 143.54 Height: 71.0 m
Data from the previous 72 hours. | See also: Recent months at Swan Hill
Date/Time
EDT
Temp
°C
App
Temp
°C
Dew
Point
Rel
Hum
%
Delta-T
°C
Wind Press
QNH
hPa
Press
MSL
hPa
Rain
since 9 am
mm
Dir
 
Spd
km/h
Gust
km/h
Spd
kts
Gust
kts
26/02:00pm 23.6 18.0 1.3 23 10.4 SW 20 32 11 17 1020.5 - 0.0
26/01:30pm 22.4 17.0 1.1 24 9.8 W 19 28 10 15 1020.8 - 0.0
26/01:00pm 21.8 16.3 0.3 24 9.7 SW 19 32 10 17 1021.2 - 0.0
26/12:30pm 20.8 15.5 2.0 28 8.7 WSW 19 32 10 17 1021.7 - 0.0
26/12:00pm 21.0 16.5 2.3 29 8.7 WSW 15 22 8 12 1021.8 1021.6 0.0
26/11:30am 19.8 16.5 4.4 36 7.4 WSW 11 17 6 9 1022.1 - 0.0
26/11:00am 19.5 15.5 5.1 38 7.0 SSW 15 24 8 13 1022.2 - 0.0
26/10:30am 18.6 15.0 5.2 41 6.5 S 13 24 7 13 1022.2 - 0.0
26/10:00am 17.7 13.4 5.2 43 6.0 S 17 22 9 12 1022.2 - 0.0
26/09:30am 16.9 13.0 5.2 46 5.6 S 15 28 8 15 1022.2 - 0.0
26/09:00am 16.3 12.1 5.7 49 5.1 SSE 17 24 9 13 1022.0 1021.8 0.0
26/08:30am 15.3 11.5 5.9 53 4.5 SE 15 24 8 13 1021.8 - 0.0
26/08:00am 14.3 11.0 6.4 59 3.8 SSE 13 19 7 10 1021.6 - 0.0
26/07:30am 13.0 10.2 6.8 66 3.0 SSE 11 19 6 10 1021.3 - 0.0
26/07:00am 11.6 9.2 6.8 72 2.3 SSE 9 13 5 7 1021.2 - 0.0
26/06:30am 10.4 7.9 6.6 77 1.8 SSE 9 13 5 7 1020.9 - 0.0
26/06:00am 10.7 7.5 6.7 76 1.9 SSE 13 15 7 8 1020.7 1020.5 0.0
26/05:30am 11.0 8.1 6.5 74 2.1 S 11 17 6 9 1020.4 - 0.0
26/05:00am 11.2 7.9 6.5 73 2.2 S 13 20 7 11 1020.1 - 0.0
26/04:30am 11.4 8.1 6.3 71 2.4 S 13 17 7 9 1020.1 - 0.0
26/04:00am 11.5 8.1 5.7 67 2.7 S 13 17 7 9 1019.9 - 0.0
26/03:30am 11.3 8.4 4.9 65 2.9 S 9 13 5 7 1019.9 - 0.0
26/03:00am 12.2 8.9 4.8 60 3.4 SSW 11 15 6 8 1019.8 1019.6 0.0
26/02:30am 13.4 9.7 4.5 55 4.1 SSW 13 20 7 11 1019.8 - 0.0
26/02:00am 14.0 9.9 4.2 51 4.5 SSW 15 22 8 12 1020.0 - 0.0
26/01:30am 14.5 9.9 3.8 48 4.9 SSW 17 24 9 13 1020.2 - 0.0
26/01:00am 15.0 10.3 3.3 45 5.3 SSW 17 24 9 13 1020.3 - 0.0
26/12:30am 15.2 10.5 3.3 45 5.4 SW 17 20 9 11 1020.4 - 0.0
26/12:00am 15.5 11.5 2.9 42 5.7 SSW 13 17 7 9 1020.4 1020.2 0.0
 
Date/Time
EDT
Temp
°C
App
Temp
°C
Dew
Point
Rel
Hum
%
Delta-T
°C
Wind Press
QNH
hPa
Press
MSL
hPa
Rain
since 9 am
mm
Dir
 
Spd
km/h
Gust
km/h
Spd
kts
Gust
kts
25/11:30pm 16.1 12.1 2.6 40 6.1 SSW 13 17 7 9 1020.4 - 0.0
25/11:00pm 16.6 13.3 2.7 39 6.3 SSW 9 15 5 8 1020.4 - 0.0
25/10:30pm 17.6 13.4 1.5 34 7.2 SSW 13 17 7 9 1020.3 - 0.0
25/10:00pm 18.2 14.4 1.5 32 7.5 SW 11 15 6 8 1020.2 - 0.0
25/09:30pm 18.7 14.7 0.6 29 8.0 SW 11 15 6 8 1019.9 - 0.0
25/09:00pm 19.3 15.0 0.7 28 8.3 SW 13 15 7 8 1019.7 1019.5 0.0
25/08:30pm 20.7 16.3 0.4 26 9.1 SW 13 17 7 9 1019.4 - 0.0
25/08:00pm 22.1 17.1 -1.0 21 10.2 SW 15 20 8 11 1019.1 - 0.0
25/07:30pm 23.0 17.2 -1.5 19 10.8 SW 19 26 10 14 1019.0 - 0.0
25/07:00pm 23.7 17.7 -1.6 18 11.2 SW 20 28 11 15 1018.5 - 0.0
25/06:30pm 24.3 18.6 -1.1 18 11.4 WSW 19 28 10 15 1018.2 - 0.0
25/06:00pm 24.0 17.6 -1.8 18 11.4 WSW 22 48 12 26 1018.3 1018.2 0.0
25/05:30pm 24.4 18.7 -0.9 18 11.4 WSW 19 32 10 17 1018.4 - 0.0
25/05:00pm 24.4 18.7 -0.5 19 11.3 WSW 19 32 10 17 1018.5 - 0.0
25/04:30pm 23.9 18.0 -0.8 19 11.1 W 20 33 11 18 1018.7 - 0.0
25/04:00pm 24.0 17.1 -2.3 17 11.5 SW 24 35 13 19 1019.1 - 0.0
25/03:30pm 23.6 17.3 -1.0 19 11.0 W 22 39 12 21 1019.2 - 0.0
25/03:00pm 23.0 17.2 0.1 22 10.4 SSW 20 33 11 18 1019.5 1019.2 0.0
25/02:30pm 22.2 16.6 0.0 23 10.0 SSW 19 32 10 17 1019.7 - 0.0
25/02:00pm 21.7 17.5 1.6 26 9.3 W 13 28 7 15 1020.1 - 0.0
25/01:30pm 21.1 15.6 1.9 28 8.9 WSW 20 32 11 17 1020.3 - 0.0
25/01:00pm 21.3 16.7 1.5 27 9.1 SW 15 30 8 16 1020.5 - 0.0
25/12:30pm 19.7 14.3 2.4 31 8.0 W 20 28 11 15 1020.8 - 0.0
25/12:00pm 19.0 14.7 3.5 35 7.3 WSW 15 32 8 17 1021.0 1020.8 0.0
25/11:30am 19.6 15.4 3.8 35 7.5 SW 15 28 8 15 1021.1 - 0.0
25/11:00am 18.2 13.8 4.9 41 6.4 SW 17 26 9 14 1021.2 - 0.0
25/10:30am 17.4 13.0 4.5 42 6.1 SSW 17 28 9 15 1021.4 - 0.0
25/10:00am 16.8 12.1 5.1 46 5.6 SSW 19 30 10 16 1021.3 - 0.0
25/09:30am 15.4 10.6 5.8 52 4.6 SW 20 28 11 15 1021.3 - 0.0
25/09:00am 15.1 10.9 5.9 54 4.4 SSW 17 28 9 15 1021.0 1020.8 0.6
25/08:30am 14.2 10.3 7.0 62 3.5 SW 17 22 9 12 1020.7 - 0.6
25/08:00am 12.5 8.8 6.4 66 2.9 SSW 15 20 8 11 1020.4 - 0.6
25/07:30am 10.8 6.7 6.1 73 2.2 WSW 17 20 9 11 1019.9 - 0.6
25/07:00am 9.5 6.5 5.8 78 1.7 WSW 11 17 6 9 1019.4 - 0.6
25/06:30am 6.9 4.4 4.8 86 0.9 WSW 7 9 4 5 1019.2 - 0.6
25/06:00am 6.7 3.8 4.9 88 0.8 WSW 9 13 5 7 1018.7 1018.6 0.6
25/05:30am 8.1 4.9 5.2 82 1.3 WSW 11 13 6 7 1018.2 - 0.6
25/05:00am 8.6 5.1 5.5 81 1.4 WSW 13 17 7 9 1017.9 - 0.6
25/04:30am 9.4 5.8 5.2 75 1.9 SW 13 15 7 8 1017.7 - 0.6
25/04:00am 9.7 6.5 5.3 74 2.0 SW 11 13 6 7 1017.7 - 0.6
25/03:30am 10.1 6.6 5.3 72 2.2 SW 13 19 7 10 1017.5 - 0.6
25/03:00am 10.6 7.1 5.4 70 2.4 WSW 13 17 7 9 1017.4 1017.3 0.6
25/02:30am 11.7 7.4 5.2 64 3.0 SW 17 20 9 11 1017.3 - 0.6
25/02:00am 12.1 8.1 4.9 61 3.3 SW 15 22 8 12 1017.2 - 0.6
25/01:30am 12.7 8.3 4.6 58 3.7 SW 17 22 9 12 1017.1 - 0.6
25/01:00am 13.1 8.0 4.1 54 4.1 SW 20 26 11 14 1016.7 - 0.6
25/12:30am 13.9 7.9 3.5 49 4.7 SW 24 32 13 17 1016.5 - 0.6
25/12:00am 14.5 9.3 3.5 47 5.0 SW 20 30 11 16 1016.3 1016.2 0.6
 
Date/Time
EDT
Temp
°C
App
Temp
°C
Dew
Point
Rel
Hum
%
Delta-T
°C
Wind Press
QNH
hPa
Press
MSL
hPa
Rain
since 9 am
mm
Dir
 
Spd
km/h
Gust
km/h
Spd
kts
Gust
kts
24/11:30pm 15.5 9.5 3.5 44 5.5 SW 24 35 13 19 1016.0 - 0.6
24/11:00pm 16.1 10.2 3.8 44 5.7 SW 24 35 13 19 1015.3 - 0.6
24/10:30pm 16.6 9.6 4.3 44 5.8 WSW 30 37 16 20 1014.6 - 0.6
24/10:00pm 17.4 11.4 5.2 44 5.9 SW 26 33 14 18 1013.9 - 0.6
24/09:30pm 18.0 12.7 6.8 48 5.6 SW 24 32 13 17 1013.3 - 0.6
24/09:00pm 18.5 12.6 7.5 48 5.6 SW 28 43 15 23 1012.9 1012.7 0.6
24/08:30pm 19.4 12.8 8.5 49 5.7 SW 33 46 18 25 1012.3 - 0.6
24/08:00pm 20.5 12.9 9.2 48 6.0 SW 39 54 21 29 1011.7 - 0.6
24/07:44pm 21.0 13.6 9.7 48 6.1 SW 39 57 21 31 1011.0 - 0.6
24/07:30pm 22.0 13.9 10.1 46 6.5 SW 43 57 23 31 1010.6 - 0.6
24/07:01pm 24.0 16.0 10.5 42 7.5 SW 43 61 23 33 1009.3 - 0.6
24/07:00pm 24.2 16.2 10.6 42 7.6 SW 43 57 23 31 1009.3 - 0.6
24/06:30pm 24.9 17.2 8.6 35 8.8 SW 39 54 21 29 1008.3 - 0.6
24/06:13pm 25.0 19.0 8.5 35 8.9 WSW 30 50 16 27 1008.3 - 0.6
24/06:00pm 24.8 19.3 9.2 37 8.5 SW 28 43 15 23 1008.3 1008.1 0.6
24/05:30pm 24.3 19.3 10.9 43 7.5 SW 28 43 15 23 1007.9 - 0.6
24/05:00pm 24.4 17.1 11.5 44 7.3 SW 41 59 22 32 1006.8 - 0.6
24/04:59pm 24.4 17.1 11.5 44 7.3 SW 41 59 22 32 1006.7 - 0.6
24/04:30pm 26.1 19.5 13.8 46 7.3 SW 41 56 22 30 1005.8 - 0.6
24/04:00pm 27.2 20.5 14.6 46 7.6 SW 43 59 23 32 1005.5 - 0.6
24/03:53pm 27.8 21.9 14.6 44 8.0 SW 39 59 21 32 1005.5 - 0.6
24/03:51pm 27.6 22.7 15.2 46 7.6 SW 35 57 19 31 1005.4 - 0.6
24/03:30pm 28.8 21.8 16.3 46 7.8 W 48 61 26 33 1005.3 - 0.6
24/03:20pm 29.8 24.8 17.0 46 8.1 WSW 39 57 21 31 1005.2 - 0.6
24/03:00pm 27.4 24.6 19.4 61 5.2 W 33 48 18 26 1005.5 1005.3 0.6
24/02:30pm 24.3 21.6 19.2 73 3.3 W 32 43 17 23 1005.7 - 0.6
24/02:12pm 21.8 14.8 16.2 70 3.4 WSW 48 98 26 53 1005.8 - 0.6
24/02:08pm 23.7 11.9 18.5 72 3.3 W 78 98 42 53 1006.3 - 0.2
24/02:07pm 26.2 18.4 18.0 60 5.2 W 56 98 30 53 1005.7 - 0.0
24/02:00pm 31.1 22.7 13.5 34 10.6 WNW 50 69 27 37 1005.5 - 0.0
24/01:30pm 33.0 26.0 12.4 28 12.3 NW 41 61 22 33 1005.7 - 0.0
24/01:25pm 33.5 27.8 13.0 29 12.4 NW 35 57 19 31 1006.0 - 0.0
24/01:10pm 32.0 25.8 12.8 31 11.5 NNW 37 56 20 30 1006.1 - 0.0
24/01:00pm 32.2 25.9 13.6 32 11.3 NNW 39 54 21 29 1006.7 - 0.0
24/12:30pm 30.9 24.1 13.2 34 10.6 N 41 56 22 30 1007.7 - 0.0
24/12:00pm 30.0 22.9 13.5 36 9.9 N 43 52 23 28 1008.3 1008.1 0.0
24/11:30am 28.7 22.5 13.9 40 8.9 N 39 52 21 28 1008.4 - 0.0
24/11:00am 26.4 21.8 15.2 50 6.8 N 33 39 18 21 1009.1 - 0.0
24/10:30am 26.2 23.2 15.9 53 6.3 N 26 35 14 19 1009.1 - 0.0
24/10:00am 24.7 19.7 16.0 58 5.3 N 37 50 20 27 1009.0 - 0.0
24/09:30am 24.3 18.3 15.4 57 5.4 N 41 57 22 31 1009.2 - 0.0
24/09:04am 24.3 17.5 14.4 54 5.9 N 43 61 23 33 1009.2 - 0.0
24/09:00am 24.3 18.1 13.8 52 6.2 N 39 50 21 27 1009.1 1009.0 0.2
24/08:37am 24.3 20.0 13.1 49 6.5 N 28 48 15 26 1009.2 - 0.2
24/08:30am 24.5 19.2 13.2 49 6.6 N 33 50 18 27 1009.5 - 0.2
24/08:01am 25.4 20.4 12.2 43 7.6 N 30 48 16 26 1009.3 - 0.2
24/08:00am 25.4 20.4 12.2 43 7.6 N 30 46 16 25 1009.3 - 0.2
24/07:47am 25.1 20.2 11.3 42 7.8 N 28 50 15 27 1009.1 - 0.2
24/07:30am 23.7 20.4 11.0 44 7.1 N 19 24 10 13 1008.5 - 0.2
24/07:00am 22.9 20.0 10.9 46 6.7 N 17 20 9 11 1008.4 - 0.2
24/06:30am 21.9 19.9 11.6 52 5.8 N 13 15 7 8 1008.3 - 0.2
24/06:00am 21.5 19.6 11.7 53 5.5 N 13 15 7 8 1008.5 1008.3 0.2
24/05:30am 22.3 19.8 11.0 48 6.3 N 15 17 8 9 1008.2 - 0.2
24/05:00am 22.8 19.7 10.3 45 6.9 NNE 17 20 9 11 1008.3 - 0.2
24/04:30am 21.8 18.7 10.3 48 6.3 NNE 17 22 9 12 1008.3 - 0.2
24/04:00am 20.1 19.7 13.1 64 4.0 NE 7 9 4 5 1008.9 - 0.2
24/03:30am 20.9 20.3 12.4 58 4.8 NE 7 9 4 5 1008.7 - 0.2
24/03:00am 20.6 20.2 12.5 59 4.6 ENE 6 7 3 4 1008.8 1008.6 0.2
24/02:30am 20.3 19.8 12.5 61 4.4 NE 7 52 4 28 1008.8 - 0.2
24/02:00am 20.4 19.3 12.0 58 4.7 ENE 9 11 5 6 1009.0 - 0.2
24/01:30am 20.3 18.8 11.9 58 4.7 ENE 11 15 6 8 1009.9 - 0.2
24/01:00am 20.8 19.1 11.2 54 5.3 ENE 11 15 6 8 1010.3 - 0.2
24/12:30am 20.9 20.6 11.4 54 5.3 E 4 9 2 5 1010.0 - 0.2
24/12:00am 21.8 19.7 11.0 50 6.0 ESE 13 15 7 8 1009.9 1009.7 0.2
 
Date/Time
EDT
Temp
°C
App
Temp
°C
Dew
Point
Rel
Hum
%
Delta-T
°C
Wind Press
QNH
hPa
Press
MSL
hPa
Rain
since 9 am
mm
Dir
 
Spd
km/h
Gust
km/h
Spd
kts
Gust
kts
23/11:30pm 20.9 20.0 12.6 59 4.7 ESE 9 11 5 6 1010.8 - 0.2
23/11:00pm 22.5 21.1 12.3 52 5.8 SE 11 13 6 7 1010.7 - 0.2
23/10:30pm 22.9 22.2 13.2 54 5.6 SE 9 11 5 6 1011.0 - 0.2
23/10:00pm 23.3 21.7 11.6 47 6.6 E 11 17 6 9 1010.9 - 0.2
23/09:30pm 25.8 22.8 7.6 31 9.7 SW 13 17 7 9 1012.5 - 0.2
23/09:00pm 26.2 22.9 6.6 28 10.3 SSW 13 17 7 9 1011.6 1011.4 0.2
23/08:30pm 26.7 23.9 6.8 28 10.5 W 11 17 6 9 1013.1 - 0.2
23/08:00pm 27.4 24.1 6.6 26 11.0 W 13 15 7 8 1013.3 - 0.2
23/07:30pm 28.3 24.3 5.1 23 12.0 W 15 22 8 12 1013.4 - 0.2
23/07:00pm 28.9 24.9 5.0 22 12.4 SW 15 22 8 12 1011.4 - 0.2
23/06:30pm 30.0 25.6 4.9 20 13.1 SSW 17 24 9 13 1010.4 - 0.2
23/06:00pm 30.9 27.0 5.3 20 13.5 SSW 15 35 8 19 1010.2 1010.0 0.2
23/05:30pm 31.1 25.9 3.7 17 14.1 WSW 20 28 11 15 1010.2 - 0.2
23/05:00pm 30.6 25.6 4.4 19 13.6 WSW 20 32 11 17 1010.4 - 0.2
23/04:30pm 31.9 25.2 3.6 16 14.6 W 28 37 15 20 1010.7 - 0.2
23/04:00pm 31.1 24.0 3.3 17 14.2 W 30 43 16 23 1010.8 - 0.2
23/03:30pm 32.1 25.8 5.8 19 14.1 W 28 35 15 19 1010.7 - 0.2
23/03:00pm 31.9 25.9 5.4 19 14.1 WNW 26 35 14 19 1010.7 1010.6 0.2
23/02:30pm 31.2 26.3 8.3 24 12.7 WNW 24 32 13 17 1010.8 - 0.2

Other Formats:

Comma delimited format used in spreadsheet applications
http://www.bom.gov.au/fwo/IDN60801/IDN60801.94843.axf

JavaScript Object Notation format (JSON) in row-major order
http://www.bom.gov.au/fwo/IDN60801/IDN60801.94843.json